sensor_id;sensor_type;location;lat;lon;timestamp;temperature;humidity
4687;DHT22;2357;47.316;-1.348;2023-01-05T00:01:28;12.80;99.90
4687;DHT22;2357;47.316;-1.348;2023-01-05T00:03:54;12.80;99.90
4687;DHT22;2357;47.316;-1.348;2023-01-05T00:06:20;12.80;99.90
4687;DHT22;2357;47.316;-1.348;2023-01-05T00:08:46;12.80;99.90
4687;DHT22;2357;47.316;-1.348;2023-01-05T00:11:14;12.70;99.90
4687;DHT22;2357;47.316;-1.348;2023-01-05T00:13:59;12.80;99.90
4687;DHT22;2357;47.316;-1.348;2023-01-05T00:16:43;12.80;99.90
4687;DHT22;2357;47.316;-1.348;2023-01-05T00:19:27;12.80;99.90
4687;DHT22;2357;47.316;-1.348;2023-01-05T00:22:20;12.70;99.90
4687;DHT22;2357;47.316;-1.348;2023-01-05T00:25:11;12.70;99.90
4687;DHT22;2357;47.316;-1.348;2023-01-05T00:27:41;12.80;99.90
4687;DHT22;2357;47.316;-1.348;2023-01-05T00:30:08;12.80;99.90
4687;DHT22;2357;47.316;-1.348;2023-01-05T00:32:34;12.80;99.90
4687;DHT22;2357;47.316;-1.348;2023-01-05T00:35:00;12.80;99.90
4687;DHT22;2357;47.316;-1.348;2023-01-05T00:37:29;12.80;99.90
4687;DHT22;2357;47.316;-1.348;2023-01-05T00:39:55;12.80;99.90
4687;DHT22;2357;47.316;-1.348;2023-01-05T00:42:21;12.80;99.90
4687;DHT22;2357;47.316;-1.348;2023-01-05T00:44:47;12.80;99.90
4687;DHT22;2357;47.316;-1.348;2023-01-05T00:47:13;12.70;99.90
4687;DHT22;2357;47.316;-1.348;2023-01-05T00:49:38;12.70;99.90
4687;DHT22;2357;47.316;-1.348;2023-01-05T00:52:05;12.80;99.90
4687;DHT22;2357;47.316;-1.348;2023-01-05T00:54:31;12.80;99.90
4687;DHT22;2357;47.316;-1.348;2023-01-05T00:56:57;12.70;99.90
4687;DHT22;2357;47.316;-1.348;2023-01-05T00:59:22;12.70;99.90
4687;DHT22;2357;47.316;-1.348;2023-01-05T01:01:49;12.70;99.90
4687;DHT22;2357;47.316;-1.348;2023-01-05T01:04:16;12.70;99.90
4687;DHT22;2357;47.316;-1.348;2023-01-05T01:06:43;12.80;99.90
4687;DHT22;2357;47.316;-1.348;2023-01-05T01:09:09;12.70;99.90
4687;DHT22;2357;47.316;-1.348;2023-01-05T01:11:35;12.70;99.90
4687;DHT22;2357;47.316;-1.348;2023-01-05T01:14:01;12.80;99.90
4687;DHT22;2357;47.316;-1.348;2023-01-05T01:16:27;12.70;99.90
4687;DHT22;2357;47.316;-1.348;2023-01-05T01:18:52;12.70;99.90
4687;DHT22;2357;47.316;-1.348;2023-01-05T01:21:18;12.70;99.90
4687;DHT22;2357;47.316;-1.348;2023-01-05T01:23:44;12.70;99.90
4687;DHT22;2357;47.316;-1.348;2023-01-05T01:26:11;12.70;99.90
4687;DHT22;2357;47.316;-1.348;2023-01-05T01:28:37;12.70;99.90
4687;DHT22;2357;47.316;-1.348;2023-01-05T01:31:03;12.70;99.90
4687;DHT22;2357;47.316;-1.348;2023-01-05T01:33:29;12.70;99.90
4687;DHT22;2357;47.316;-1.348;2023-01-05T01:35:56;12.70;99.90
4687;DHT22;2357;47.316;-1.348;2023-01-05T01:38:22;12.70;99.90
4687;DHT22;2357;47.316;-1.348;2023-01-05T01:40:47;12.70;99.90
4687;DHT22;2357;47.316;-1.348;2023-01-05T01:46:07;12.70;99.90
4687;DHT22;2357;47.316;-1.348;2023-01-05T01:48:34;12.70;99.90
4687;DHT22;2357;47.316;-1.348;2023-01-05T01:51:03;12.70;99.90
4687;DHT22;2357;47.316;-1.348;2023-01-05T01:53:36;12.70;99.90
4687;DHT22;2357;47.316;-1.348;2023-01-05T01:56:04;12.70;99.90
4687;DHT22;2357;47.316;-1.348;2023-01-05T01:58:33;12.70;99.90
4687;DHT22;2357;47.316;-1.348;2023-01-05T02:00:59;12.70;99.90
4687;DHT22;2357;47.316;-1.348;2023-01-05T02:03:26;12.70;99.90
4687;DHT22;2357;47.316;-1.348;2023-01-05T02:05:53;12.70;99.90
4687;DHT22;2357;47.316;-1.348;2023-01-05T02:08:19;12.70;99.90
4687;DHT22;2357;47.316;-1.348;2023-01-05T02:27:47;12.70;99.90
4687;DHT22;2357;47.316;-1.348;2023-01-05T02:35:57;12.70;99.90
4687;DHT22;2357;47.316;-1.348;2023-01-05T02:38:34;12.70;99.90
4687;DHT22;2357;47.316;-1.348;2023-01-05T02:41:15;12.70;99.90
4687;DHT22;2357;47.316;-1.348;2023-01-05T02:43:44;12.70;99.90
4687;DHT22;2357;47.316;-1.348;2023-01-05T02:46:10;12.70;99.90
4687;DHT22;2357;47.316;-1.348;2023-01-05T02:48:36;12.70;99.90
4687;DHT22;2357;47.316;-1.348;2023-01-05T02:51:06;12.70;99.90
4687;DHT22;2357;47.316;-1.348;2023-01-05T02:53:37;12.70;99.90
4687;DHT22;2357;47.316;-1.348;2023-01-05T02:56:30;12.70;99.90
4687;DHT22;2357;47.316;-1.348;2023-01-05T02:59:15;12.70;99.90
4687;DHT22;2357;47.316;-1.348;2023-01-05T03:01:48;12.70;99.90
4687;DHT22;2357;47.316;-1.348;2023-01-05T03:04:22;12.70;99.90
4687;DHT22;2357;47.316;-1.348;2023-01-05T03:07:01;12.70;99.90
4687;DHT22;2357;47.316;-1.348;2023-01-05T03:09:31;12.70;99.90
4687;DHT22;2357;47.316;-1.348;2023-01-05T03:17:43;12.70;99.90
4687;DHT22;2357;47.316;-1.348;2023-01-05T03:20:12;12.70;99.90
4687;DHT22;2357;47.316;-1.348;2023-01-05T03:22:40;12.70;99.90
4687;DHT22;2357;47.316;-1.348;2023-01-05T03:25:26;12.70;99.90
4687;DHT22;2357;47.316;-1.348;2023-01-05T03:28:18;12.70;99.90
4687;DHT22;2357;47.316;-1.348;2023-01-05T03:31:12;12.70;99.90
4687;DHT22;2357;47.316;-1.348;2023-01-05T03:34:22;12.70;99.90
4687;DHT22;2357;47.316;-1.348;2023-01-05T03:37:14;12.70;99.90
4687;DHT22;2357;47.316;-1.348;2023-01-05T03:39:42;12.70;99.90
4687;DHT22;2357;47.316;-1.348;2023-01-05T03:42:10;12.70;99.90
4687;DHT22;2357;47.316;-1.348;2023-01-05T03:44:37;12.70;99.90
4687;DHT22;2357;47.316;-1.348;2023-01-05T03:47:04;12.70;99.90
4687;DHT22;2357;47.316;-1.348;2023-01-05T03:49:29;12.70;99.90
4687;DHT22;2357;47.316;-1.348;2023-01-05T03:51:55;12.70;99.90
4687;DHT22;2357;47.316;-1.348;2023-01-05T03:54:21;12.60;99.90
4687;DHT22;2357;47.316;-1.348;2023-01-05T03:56:46;12.70;99.90
4687;DHT22;2357;47.316;-1.348;2023-01-05T03:59:12;12.60;99.90
4687;DHT22;2357;47.316;-1.348;2023-01-05T04:01:38;12.70;99.90
4687;DHT22;2357;47.316;-1.348;2023-01-05T04:04:03;12.70;99.90
4687;DHT22;2357;47.316;-1.348;2023-01-05T04:06:29;12.70;99.90
4687;DHT22;2357;47.316;-1.348;2023-01-05T04:08:55;12.80;99.90
4687;DHT22;2357;47.316;-1.348;2023-01-05T04:11:21;12.70;99.90
4687;DHT22;2357;47.316;-1.348;2023-01-05T04:13:47;12.70;99.90
4687;DHT22;2357;47.316;-1.348;2023-01-05T04:16:13;12.70;99.90
4687;DHT22;2357;47.316;-1.348;2023-01-05T04:18:39;12.70;99.90
4687;DHT22;2357;47.316;-1.348;2023-01-05T04:21:05;12.80;99.90
4687;DHT22;2357;47.316;-1.348;2023-01-05T04:23:31;12.70;99.90
4687;DHT22;2357;47.316;-1.348;2023-01-05T04:25:57;12.70;99.90
4687;DHT22;2357;47.316;-1.348;2023-01-05T04:28:23;12.70;99.90
4687;DHT22;2357;47.316;-1.348;2023-01-05T04:30:50;12.70;99.90
4687;DHT22;2357;47.316;-1.348;2023-01-05T04:33:17;12.70;99.90
4687;DHT22;2357;47.316;-1.348;2023-01-05T04:35:43;12.80;99.90
4687;DHT22;2357;47.316;-1.348;2023-01-05T04:38:09;12.70;99.90
4687;DHT22;2357;47.316;-1.348;2023-01-05T04:40:35;12.80;99.90
4687;DHT22;2357;47.316;-1.348;2023-01-05T04:43:00;12.70;99.90
4687;DHT22;2357;47.316;-1.348;2023-01-05T04:45:26;12.70;99.90
4687;DHT22;2357;47.316;-1.348;2023-01-05T04:47:51;12.70;99.90
4687;DHT22;2357;47.316;-1.348;2023-01-05T04:50:18;12.70;99.90
4687;DHT22;2357;47.316;-1.348;2023-01-05T04:52:44;12.70;99.90
4687;DHT22;2357;47.316;-1.348;2023-01-05T04:55:10;12.80;99.90
4687;DHT22;2357;47.316;-1.348;2023-01-05T04:57:36;12.70;99.90
4687;DHT22;2357;47.316;-1.348;2023-01-05T05:00:03;12.70;99.90
4687;DHT22;2357;47.316;-1.348;2023-01-05T05:02:29;12.70;99.90
4687;DHT22;2357;47.316;-1.348;2023-01-05T05:04:55;12.70;99.90
4687;DHT22;2357;47.316;-1.348;2023-01-05T05:07:21;12.70;99.90
4687;DHT22;2357;47.316;-1.348;2023-01-05T05:09:46;12.70;99.90
4687;DHT22;2357;47.316;-1.348;2023-01-05T05:12:12;12.70;99.90
4687;DHT22;2357;47.316;-1.348;2023-01-05T05:14:38;12.70;99.90
4687;DHT22;2357;47.316;-1.348;2023-01-05T05:17:04;12.70;99.90
4687;DHT22;2357;47.316;-1.348;2023-01-05T05:19:31;12.60;99.90
4687;DHT22;2357;47.316;-1.348;2023-01-05T05:21:56;12.70;99.90
4687;DHT22;2357;47.316;-1.348;2023-01-05T05:24:22;12.60;99.90
4687;DHT22;2357;47.316;-1.348;2023-01-05T05:26:48;12.60;99.90
4687;DHT22;2357;47.316;-1.348;2023-01-05T05:29:13;12.60;99.90
4687;DHT22;2357;47.316;-1.348;2023-01-05T05:31:39;12.60;99.90
4687;DHT22;2357;47.316;-1.348;2023-01-05T05:34:05;12.60;99.90
4687;DHT22;2357;47.316;-1.348;2023-01-05T05:36:31;12.70;99.90
4687;DHT22;2357;47.316;-1.348;2023-01-05T05:38:56;12.70;99.90
4687;DHT22;2357;47.316;-1.348;2023-01-05T05:41:23;12.60;99.90
4687;DHT22;2357;47.316;-1.348;2023-01-05T05:43:49;12.60;99.90
4687;DHT22;2357;47.316;-1.348;2023-01-05T05:46:14;12.60;99.90
4687;DHT22;2357;47.316;-1.348;2023-01-05T05:48:40;12.60;99.90
4687;DHT22;2357;47.316;-1.348;2023-01-05T05:51:06;12.60;99.90
4687;DHT22;2357;47.316;-1.348;2023-01-05T05:53:31;12.60;99.90
4687;DHT22;2357;47.316;-1.348;2023-01-05T05:55:57;12.60;99.90
4687;DHT22;2357;47.316;-1.348;2023-01-05T05:58:22;12.60;99.90
4687;DHT22;2357;47.316;-1.348;2023-01-05T06:00:48;12.50;99.90
4687;DHT22;2357;47.316;-1.348;2023-01-05T06:03:14;12.40;99.90
4687;DHT22;2357;47.316;-1.348;2023-01-05T06:05:39;12.40;99.90
4687;DHT22;2357;47.316;-1.348;2023-01-05T06:08:05;12.30;99.90
4687;DHT22;2357;47.316;-1.348;2023-01-05T06:10:31;12.30;99.90
4687;DHT22;2357;47.316;-1.348;2023-01-05T06:12:56;12.40;99.90
4687;DHT22;2357;47.316;-1.348;2023-01-05T06:15:22;12.30;99.90
4687;DHT22;2357;47.316;-1.348;2023-01-05T06:17:48;12.30;99.90
4687;DHT22;2357;47.316;-1.348;2023-01-05T06:20:15;12.30;99.90
4687;DHT22;2357;47.316;-1.348;2023-01-05T06:22:41;12.30;99.90
4687;DHT22;2357;47.316;-1.348;2023-01-05T06:25:07;12.30;99.90
4687;DHT22;2357;47.316;-1.348;2023-01-05T06:27:34;12.20;99.90
4687;DHT22;2357;47.316;-1.348;2023-01-05T06:29:59;12.20;99.90
4687;DHT22;2357;47.316;-1.348;2023-01-05T06:32:25;12.20;99.90
4687;DHT22;2357;47.316;-1.348;2023-01-05T06:34:50;12.20;99.90
4687;DHT22;2357;47.316;-1.348;2023-01-05T06:37:16;12.20;99.90
4687;DHT22;2357;47.316;-1.348;2023-01-05T06:39:42;12.20;99.90
4687;DHT22;2357;47.316;-1.348;2023-01-05T06:42:07;12.20;99.90
4687;DHT22;2357;47.316;-1.348;2023-01-05T06:44:33;12.20;99.90
4687;DHT22;2357;47.316;-1.348;2023-01-05T06:46:58;12.20;99.90
4687;DHT22;2357;47.316;-1.348;2023-01-05T06:49:24;12.20;99.90
4687;DHT22;2357;47.316;-1.348;2023-01-05T06:51:50;12.20;99.90
4687;DHT22;2357;47.316;-1.348;2023-01-05T06:54:15;12.30;99.90
4687;DHT22;2357;47.316;-1.348;2023-01-05T06:56:41;12.30;99.90
4687;DHT22;2357;47.316;-1.348;2023-01-05T06:59:06;12.30;99.90
4687;DHT22;2357;47.316;-1.348;2023-01-05T07:01:32;12.20;99.90
4687;DHT22;2357;47.316;-1.348;2023-01-05T07:03:58;12.30;99.90
4687;DHT22;2357;47.316;-1.348;2023-01-05T07:06:23;12.30;99.90
4687;DHT22;2357;47.316;-1.348;2023-01-05T07:08:49;12.30;99.90
4687;DHT22;2357;47.316;-1.348;2023-01-05T07:11:14;12.20;99.90
4687;DHT22;2357;47.316;-1.348;2023-01-05T07:13:40;12.20;99.90
4687;DHT22;2357;47.316;-1.348;2023-01-05T07:16:06;12.30;99.90
4687;DHT22;2357;47.316;-1.348;2023-01-05T07:18:32;12.30;99.90
4687;DHT22;2357;47.316;-1.348;2023-01-05T07:21:00;12.30;99.90
4687;DHT22;2357;47.316;-1.348;2023-01-05T07:23:26;12.30;99.90
4687;DHT22;2357;47.316;-1.348;2023-01-05T07:25:51;12.30;99.90
4687;DHT22;2357;47.316;-1.348;2023-01-05T07:28:17;12.30;99.90
4687;DHT22;2357;47.316;-1.348;2023-01-05T07:30:43;12.30;99.90
4687;DHT22;2357;47.316;-1.348;2023-01-05T07:33:14;12.20;99.90
4687;DHT22;2357;47.316;-1.348;2023-01-05T07:35:40;12.30;99.90
4687;DHT22;2357;47.316;-1.348;2023-01-05T07:38:05;12.20;99.90
4687;DHT22;2357;47.316;-1.348;2023-01-05T07:40:31;12.20;99.90
4687;DHT22;2357;47.316;-1.348;2023-01-05T07:42:57;12.20;99.90
4687;DHT22;2357;47.316;-1.348;2023-01-05T07:45:22;12.20;99.90
4687;DHT22;2357;47.316;-1.348;2023-01-05T07:47:48;12.30;99.90
4687;DHT22;2357;47.316;-1.348;2023-01-05T07:50:14;12.30;99.90
4687;DHT22;2357;47.316;-1.348;2023-01-05T07:52:39;12.30;99.90
4687;DHT22;2357;47.316;-1.348;2023-01-05T07:55:05;12.30;99.90
4687;DHT22;2357;47.316;-1.348;2023-01-05T07:57:31;12.30;99.90
4687;DHT22;2357;47.316;-1.348;2023-01-05T07:59:57;12.30;99.90
4687;DHT22;2357;47.316;-1.348;2023-01-05T08:02:22;12.20;99.90
4687;DHT22;2357;47.316;-1.348;2023-01-05T08:04:48;12.30;99.90
4687;DHT22;2357;47.316;-1.348;2023-01-05T08:07:14;12.30;99.90
4687;DHT22;2357;47.316;-1.348;2023-01-05T08:09:40;12.30;99.90
4687;DHT22;2357;47.316;-1.348;2023-01-05T08:12:26;12.30;99.90
4687;DHT22;2357;47.316;-1.348;2023-01-05T08:14:51;12.30;99.90
4687;DHT22;2357;47.316;-1.348;2023-01-05T08:17:17;12.30;99.90
4687;DHT22;2357;47.316;-1.348;2023-01-05T08:19:43;12.30;99.90
4687;DHT22;2357;47.316;-1.348;2023-01-05T08:22:08;12.30;99.90
4687;DHT22;2357;47.316;-1.348;2023-01-05T08:24:34;12.30;99.90
4687;DHT22;2357;47.316;-1.348;2023-01-05T08:26:59;12.30;99.90
4687;DHT22;2357;47.316;-1.348;2023-01-05T08:29:25;12.40;99.90
4687;DHT22;2357;47.316;-1.348;2023-01-05T08:31:51;12.30;99.90
4687;DHT22;2357;47.316;-1.348;2023-01-05T08:34:16;12.40;99.90
4687;DHT22;2357;47.316;-1.348;2023-01-05T08:36:42;12.30;99.90
4687;DHT22;2357;47.316;-1.348;2023-01-05T08:39:10;12.40;99.90
4687;DHT22;2357;47.316;-1.348;2023-01-05T08:41:38;12.40;99.90
4687;DHT22;2357;47.316;-1.348;2023-01-05T08:44:10;12.40;99.90
4687;DHT22;2357;47.316;-1.348;2023-01-05T08:46:37;12.40;99.90
4687;DHT22;2357;47.316;-1.348;2023-01-05T08:49:05;12.40;99.90
4687;DHT22;2357;47.316;-1.348;2023-01-05T08:51:32;12.40;99.90
4687;DHT22;2357;47.316;-1.348;2023-01-05T08:53:58;12.40;99.90
4687;DHT22;2357;47.316;-1.348;2023-01-05T08:56:24;12.50;99.90
4687;DHT22;2357;47.316;-1.348;2023-01-05T08:58:50;12.40;99.90
4687;DHT22;2357;47.316;-1.348;2023-01-05T09:01:18;12.50;99.90
4687;DHT22;2357;47.316;-1.348;2023-01-05T09:03:46;12.50;99.90
4687;DHT22;2357;47.316;-1.348;2023-01-05T09:06:13;12.50;99.90
4687;DHT22;2357;47.316;-1.348;2023-01-05T09:08:40;12.50;99.90
4687;DHT22;2357;47.316;-1.348;2023-01-05T09:11:14;12.50;99.90
4687;DHT22;2357;47.316;-1.348;2023-01-05T09:13:45;12.50;99.90
4687;DHT22;2357;47.316;-1.348;2023-01-05T09:16:13;12.50;99.90
4687;DHT22;2357;47.316;-1.348;2023-01-05T09:18:40;12.50;99.90
4687;DHT22;2357;47.316;-1.348;2023-01-05T09:21:07;12.50;99.90
4687;DHT22;2357;47.316;-1.348;2023-01-05T09:23:34;12.60;99.90
4687;DHT22;2357;47.316;-1.348;2023-01-05T09:26:06;12.60;99.90
4687;DHT22;2357;47.316;-1.348;2023-01-05T09:28:32;12.60;99.90
4687;DHT22;2357;47.316;-1.348;2023-01-05T09:31:06;12.60;99.90
4687;DHT22;2357;47.316;-1.348;2023-01-05T09:33:31;12.70;99.90
4687;DHT22;2357;47.316;-1.348;2023-01-05T09:35:57;12.70;99.90
4687;DHT22;2357;47.316;-1.348;2023-01-05T09:38:23;12.70;99.90
4687;DHT22;2357;47.316;-1.348;2023-01-05T09:40:50;12.70;99.90
4687;DHT22;2357;47.316;-1.348;2023-01-05T09:43:25;12.80;99.90
4687;DHT22;2357;47.316;-1.348;2023-01-05T09:45:52;12.80;99.90
4687;DHT22;2357;47.316;-1.348;2023-01-05T09:48:19;12.80;99.90
4687;DHT22;2357;47.316;-1.348;2023-01-05T09:50:47;12.80;99.90
4687;DHT22;2357;47.316;-1.348;2023-01-05T09:53:16;12.80;99.90
4687;DHT22;2357;47.316;-1.348;2023-01-05T09:55:46;12.80;99.90
4687;DHT22;2357;47.316;-1.348;2023-01-05T09:58:18;12.80;99.90
4687;DHT22;2357;47.316;-1.348;2023-01-05T10:01:08;12.80;99.90
4687;DHT22;2357;47.316;-1.348;2023-01-05T10:03:42;12.90;99.90
4687;DHT22;2357;47.316;-1.348;2023-01-05T10:06:13;12.90;99.90
4687;DHT22;2357;47.316;-1.348;2023-01-05T10:08:43;12.90;99.90
4687;DHT22;2357;47.316;-1.348;2023-01-05T10:14:21;13.00;99.90
4687;DHT22;2357;47.316;-1.348;2023-01-05T10:16:48;13.00;99.90
4687;DHT22;2357;47.316;-1.348;2023-01-05T10:19:15;13.10;99.90
4687;DHT22;2357;47.316;-1.348;2023-01-05T10:22:14;13.00;99.90
4687;DHT22;2357;47.316;-1.348;2023-01-05T10:25:22;13.10;99.90
4687;DHT22;2357;47.316;-1.348;2023-01-05T10:28:16;13.20;99.90
4687;DHT22;2357;47.316;-1.348;2023-01-05T10:36:07;13.30;99.90
4687;DHT22;2357;47.316;-1.348;2023-01-05T10:38:40;13.30;99.90
4687;DHT22;2357;47.316;-1.348;2023-01-05T10:44:02;13.30;99.90
4687;DHT22;2357;47.316;-1.348;2023-01-05T10:46:30;13.40;99.90
4687;DHT22;2357;47.316;-1.348;2023-01-05T10:48:57;13.40;99.90
4687;DHT22;2357;47.316;-1.348;2023-01-05T10:51:24;13.50;99.90
4687;DHT22;2357;47.316;-1.348;2023-01-05T10:53:50;13.40;99.90
4687;DHT22;2357;47.316;-1.348;2023-01-05T10:56:25;13.50;99.90
4687;DHT22;2357;47.316;-1.348;2023-01-05T10:59:09;13.40;99.90
4687;DHT22;2357;47.316;-1.348;2023-01-05T11:01:36;13.40;99.90
4687;DHT22;2357;47.316;-1.348;2023-01-05T11:04:17;13.50;99.90
4687;DHT22;2357;47.316;-1.348;2023-01-05T11:06:44;13.50;99.90
4687;DHT22;2357;47.316;-1.348;2023-01-05T11:09:20;13.60;99.90
4687;DHT22;2357;47.316;-1.348;2023-01-05T11:12:00;13.60;99.90
4687;DHT22;2357;47.316;-1.348;2023-01-05T11:14:28;13.60;99.90
4687;DHT22;2357;47.316;-1.348;2023-01-05T11:17:02;13.60;99.90
4687;DHT22;2357;47.316;-1.348;2023-01-05T11:19:39;13.70;99.90
4687;DHT22;2357;47.316;-1.348;2023-01-05T11:22:29;13.70;99.90
4687;DHT22;2357;47.316;-1.348;2023-01-05T11:25:25;13.70;99.90
4687;DHT22;2357;47.316;-1.348;2023-01-05T11:28:14;13.70;99.90
4687;DHT22;2357;47.316;-1.348;2023-01-05T11:31:03;13.70;99.90
4687;DHT22;2357;47.316;-1.348;2023-01-05T11:33:30;13.70;99.90
4687;DHT22;2357;47.316;-1.348;2023-01-05T11:35:58;13.70;99.90
4687;DHT22;2357;47.316;-1.348;2023-01-05T11:38:27;13.70;99.90
4687;DHT22;2357;47.316;-1.348;2023-01-05T11:40:55;13.70;99.90
4687;DHT22;2357;47.316;-1.348;2023-01-05T11:43:22;13.70;99.90
4687;DHT22;2357;47.316;-1.348;2023-01-05T11:45:52;13.70;99.90
4687;DHT22;2357;47.316;-1.348;2023-01-05T11:48:27;13.70;99.90
4687;DHT22;2357;47.316;-1.348;2023-01-05T11:50:55;13.80;99.90
4687;DHT22;2357;47.316;-1.348;2023-01-05T11:56:21;13.80;99.90
4687;DHT22;2357;47.316;-1.348;2023-01-05T11:58:49;13.80;99.90
4687;DHT22;2357;47.316;-1.348;2023-01-05T12:01:46;13.80;99.90
4687;DHT22;2357;47.316;-1.348;2023-01-05T12:09:37;13.80;99.90
4687;DHT22;2357;47.316;-1.348;2023-01-05T12:17:14;13.80;99.90
4687;DHT22;2357;47.316;-1.348;2023-01-05T12:20:23;13.80;99.90
4687;DHT22;2357;47.316;-1.348;2023-01-05T12:47:46;13.90;99.90
4687;DHT22;2357;47.316;-1.348;2023-01-05T12:50:29;13.90;99.90
4687;DHT22;2357;47.316;-1.348;2023-01-05T12:53:05;14.20;99.90
4687;DHT22;2357;47.316;-1.348;2023-01-05T12:55:40;14.20;99.90
4687;DHT22;2357;47.316;-1.348;2023-01-05T12:58:31;14.20;99.90
4687;DHT22;2357;47.316;-1.348;2023-01-05T13:01:00;14.20;99.90
4687;DHT22;2357;47.316;-1.348;2023-01-05T13:03:33;14.30;99.90
4687;DHT22;2357;47.316;-1.348;2023-01-05T13:06:07;14.30;99.90
4687;DHT22;2357;47.316;-1.348;2023-01-05T13:08:43;14.10;99.90
4687;DHT22;2357;47.316;-1.348;2023-01-05T13:13:48;14.00;99.90
4687;DHT22;2357;47.316;-1.348;2023-01-05T13:16:26;13.90;99.90
4687;DHT22;2357;47.316;-1.348;2023-01-05T13:19:01;13.80;99.90
4687;DHT22;2357;47.316;-1.348;2023-01-05T13:21:30;13.70;99.90
4687;DHT22;2357;47.316;-1.348;2023-01-05T13:24:08;13.60;99.90
4687;DHT22;2357;47.316;-1.348;2023-01-05T13:26:36;13.50;99.90
4687;DHT22;2357;47.316;-1.348;2023-01-05T13:29:02;13.40;99.90
4687;DHT22;2357;47.316;-1.348;2023-01-05T13:31:45;13.40;99.90
4687;DHT22;2357;47.316;-1.348;2023-01-05T13:45:51;13.40;99.90
4687;DHT22;2357;47.316;-1.348;2023-01-05T13:53:38;13.20;99.90
4687;DHT22;2357;47.316;-1.348;2023-01-05T13:56:15;13.10;99.90
4687;DHT22;2357;47.316;-1.348;2023-01-05T13:58:45;13.20;99.90
4687;DHT22;2357;47.316;-1.348;2023-01-05T14:01:17;13.30;99.90
4687;DHT22;2357;47.316;-1.348;2023-01-05T14:06:23;13.50;99.90
4687;DHT22;2357;47.316;-1.348;2023-01-05T14:09:03;13.50;99.90
4687;DHT22;2357;47.316;-1.348;2023-01-05T14:11:29;13.60;99.90
4687;DHT22;2357;47.316;-1.348;2023-01-05T14:14:00;13.60;99.90
4687;DHT22;2357;47.316;-1.348;2023-01-05T14:19:22;14.50;99.90
4687;DHT22;2357;47.316;-1.348;2023-01-05T14:24:33;17.30;99.90
4687;DHT22;2357;47.316;-1.348;2023-01-05T14:27:04;16.90;99.90
4687;DHT22;2357;47.316;-1.348;2023-01-05T14:32:46;16.60;99.90
4687;DHT22;2357;47.316;-1.348;2023-01-05T14:35:41;15.70;99.90
4687;DHT22;2357;47.316;-1.348;2023-01-05T14:40:47;14.20;99.90
4687;DHT22;2357;47.316;-1.348;2023-01-05T14:43:33;13.90;99.90
4687;DHT22;2357;47.316;-1.348;2023-01-05T14:46:07;13.80;99.90
4687;DHT22;2357;47.316;-1.348;2023-01-05T14:51:28;13.60;99.90
4687;DHT22;2357;47.316;-1.348;2023-01-05T14:54:00;13.50;99.90
4687;DHT22;2357;47.316;-1.348;2023-01-05T14:56:35;13.40;99.90
4687;DHT22;2357;47.316;-1.348;2023-01-05T14:59:21;13.20;99.90
4687;DHT22;2357;47.316;-1.348;2023-01-05T15:01:54;13.10;99.90
4687;DHT22;2357;47.316;-1.348;2023-01-05T15:04:32;12.90;99.90
4687;DHT22;2357;47.316;-1.348;2023-01-05T15:07:32;12.80;99.90
4687;DHT22;2357;47.316;-1.348;2023-01-05T15:10:08;12.90;99.90
4687;DHT22;2357;47.316;-1.348;2023-01-05T15:12:42;12.80;99.90
4687;DHT22;2357;47.316;-1.348;2023-01-05T15:26:07;12.90;99.90
4687;DHT22;2357;47.316;-1.348;2023-01-05T15:31:42;12.80;99.90
4687;DHT22;2357;47.316;-1.348;2023-01-05T15:39:26;12.80;99.90
4687;DHT22;2357;47.316;-1.348;2023-01-05T15:41:56;12.70;99.90
4687;DHT22;2357;47.316;-1.348;2023-01-05T15:44:23;12.70;99.90
4687;DHT22;2357;47.316;-1.348;2023-01-05T15:46:50;12.70;99.90
4687;DHT22;2357;47.316;-1.348;2023-01-05T15:49:22;12.80;99.90
4687;DHT22;2357;47.316;-1.348;2023-01-05T15:51:51;12.80;99.90
4687;DHT22;2357;47.316;-1.348;2023-01-05T15:54:26;12.80;99.90
4687;DHT22;2357;47.316;-1.348;2023-01-05T15:56:52;12.90;99.90
4687;DHT22;2357;47.316;-1.348;2023-01-05T15:59:31;12.90;99.90
4687;DHT22;2357;47.316;-1.348;2023-01-05T16:01:57;12.90;99.90
4687;DHT22;2357;47.316;-1.348;2023-01-05T16:04:23;12.80;99.90
4687;DHT22;2357;47.316;-1.348;2023-01-05T16:07:02;12.80;99.90
4687;DHT22;2357;47.316;-1.348;2023-01-05T16:09:32;12.80;99.90
4687;DHT22;2357;47.316;-1.348;2023-01-05T16:12:10;12.80;99.90
4687;DHT22;2357;47.316;-1.348;2023-01-05T16:14:50;12.70;99.90
4687;DHT22;2357;47.316;-1.348;2023-01-05T16:17:20;12.70;99.90
4687;DHT22;2357;47.316;-1.348;2023-01-05T16:19:49;12.70;99.90
4687;DHT22;2357;47.316;-1.348;2023-01-05T16:22:40;12.70;99.90
4687;DHT22;2357;47.316;-1.348;2023-01-05T16:25:21;12.70;99.90
4687;DHT22;2357;47.316;-1.348;2023-01-05T16:27:57;12.70;99.90
4687;DHT22;2357;47.316;-1.348;2023-01-05T16:30:34;12.70;99.90
4687;DHT22;2357;47.316;-1.348;2023-01-05T16:35:43;12.70;99.90
4687;DHT22;2357;47.316;-1.348;2023-01-05T16:43:03;12.40;99.90
4687;DHT22;2357;47.316;-1.348;2023-01-05T16:45:37;12.50;99.90
4687;DHT22;2357;47.316;-1.348;2023-01-05T16:48:30;12.50;99.90
4687;DHT22;2357;47.316;-1.348;2023-01-05T16:51:03;12.50;99.90
4687;DHT22;2357;47.316;-1.348;2023-01-05T16:53:30;12.50;99.90
4687;DHT22;2357;47.316;-1.348;2023-01-05T16:55:55;12.50;99.90
4687;DHT22;2357;47.316;-1.348;2023-01-05T17:03:37;12.40;99.90
4687;DHT22;2357;47.316;-1.348;2023-01-05T17:06:03;12.50;99.90
4687;DHT22;2357;47.316;-1.348;2023-01-05T17:08:30;12.50;99.90
4687;DHT22;2357;47.316;-1.348;2023-01-05T17:11:00;12.50;99.90
4687;DHT22;2357;47.316;-1.348;2023-01-05T17:13:35;12.50;99.90
4687;DHT22;2357;47.316;-1.348;2023-01-05T17:16:01;12.50;99.90
4687;DHT22;2357;47.316;-1.348;2023-01-05T17:18:30;12.50;99.90
4687;DHT22;2357;47.316;-1.348;2023-01-05T17:20:57;12.50;99.90
4687;DHT22;2357;47.316;-1.348;2023-01-05T17:23:26;12.50;99.90
4687;DHT22;2357;47.316;-1.348;2023-01-05T17:25:53;12.50;99.90
4687;DHT22;2357;47.316;-1.348;2023-01-05T17:28:20;12.40;99.90
4687;DHT22;2357;47.316;-1.348;2023-01-05T17:30:50;12.40;99.90
4687;DHT22;2357;47.316;-1.348;2023-01-05T17:33:16;12.50;99.90
4687;DHT22;2357;47.316;-1.348;2023-01-05T17:35:43;12.40;99.90
4687;DHT22;2357;47.316;-1.348;2023-01-05T17:38:12;12.30;99.90
4687;DHT22;2357;47.316;-1.348;2023-01-05T17:40:38;12.40;99.90
4687;DHT22;2357;47.316;-1.348;2023-01-05T17:43:04;12.30;99.90
4687;DHT22;2357;47.316;-1.348;2023-01-05T17:45:30;12.30;99.90
4687;DHT22;2357;47.316;-1.348;2023-01-05T17:47:56;12.30;99.90
4687;DHT22;2357;47.316;-1.348;2023-01-05T17:50:29;12.30;99.90
4687;DHT22;2357;47.316;-1.348;2023-01-05T17:52:57;12.30;99.90
4687;DHT22;2357;47.316;-1.348;2023-01-05T17:55:23;12.20;99.90
4687;DHT22;2357;47.316;-1.348;2023-01-05T17:57:49;12.20;99.90
4687;DHT22;2357;47.316;-1.348;2023-01-05T18:00:17;12.10;99.90
4687;DHT22;2357;47.316;-1.348;2023-01-05T18:02:43;12.20;99.90
4687;DHT22;2357;47.316;-1.348;2023-01-05T18:05:10;12.10;99.90
4687;DHT22;2357;47.316;-1.348;2023-01-05T18:07:37;12.20;99.90
4687;DHT22;2357;47.316;-1.348;2023-01-05T18:10:05;12.20;99.90
4687;DHT22;2357;47.316;-1.348;2023-01-05T18:12:31;12.10;99.90
4687;DHT22;2357;47.316;-1.348;2023-01-05T18:14:57;12.20;99.90
4687;DHT22;2357;47.316;-1.348;2023-01-05T18:17:23;12.20;99.90
4687;DHT22;2357;47.316;-1.348;2023-01-05T18:19:49;12.20;99.90
4687;DHT22;2357;47.316;-1.348;2023-01-05T18:22:15;12.30;99.90
4687;DHT22;2357;47.316;-1.348;2023-01-05T18:24:41;12.30;99.90
4687;DHT22;2357;47.316;-1.348;2023-01-05T18:27:07;12.20;99.90
4687;DHT22;2357;47.316;-1.348;2023-01-05T18:29:34;12.20;99.90
4687;DHT22;2357;47.316;-1.348;2023-01-05T18:32:00;12.20;99.90